createdAt,value
2019-05-01T00:04:53.931Z,11.04
2019-05-01T00:09:57.529Z,11.15
2019-05-01T00:15:01.083Z,11.15
2019-05-01T00:20:05.724Z,11.12
2019-05-01T00:25:09.186Z,11.03
2019-05-01T00:30:15.915Z,11.18
2019-05-01T00:35:19.282Z,11.14
2019-05-01T00:40:22.697Z,10.95
2019-05-01T00:45:26.158Z,10.89
2019-05-01T00:50:29.538Z,10.85
2019-05-01T00:55:43.617Z,10.83
2019-05-01T01:01:06.797Z,10.82
2019-05-01T01:06:10.283Z,10.74
2019-05-01T01:11:13.884Z,10.76
2019-05-01T01:16:17.374Z,10.88
2019-05-01T01:21:20.808Z,10.81
2019-05-01T01:26:24.305Z,10.60
2019-05-01T01:31:27.878Z,10.42
2019-05-01T01:36:31.303Z,10.36
2019-05-01T01:41:35.576Z,10.33
2019-05-01T01:46:43.817Z,10.31
2019-05-01T01:51:47.247Z,10.35
2019-05-01T01:56:51.464Z,10.15
2019-05-01T02:01:59.393Z,10.15
2019-05-01T02:07:02.870Z,10.00
2019-05-01T02:12:06.549Z,9.85
2019-05-01T02:17:09.964Z,9.77
2019-05-01T02:22:13.380Z,9.92
2019-05-01T02:27:24.180Z,9.81
2019-05-01T02:32:29.272Z,9.84
2019-05-01T02:37:34.440Z,9.82
2019-05-01T02:42:40.373Z,9.82
2019-05-01T02:47:44.925Z,9.88
2019-05-01T02:52:48.394Z,9.80
2019-05-01T02:57:52.353Z,9.70
2019-05-01T03:02:56.608Z,9.67
2019-05-01T03:08:00.152Z,9.62
2019-05-01T03:13:05.694Z,9.74
2019-05-01T03:18:29.023Z,9.75
2019-05-01T03:23:34.357Z,9.65
2019-05-01T03:28:38.416Z,9.79
2019-05-01T03:33:41.962Z,9.75
2019-05-01T03:38:45.499Z,9.83
2019-05-01T03:43:49.004Z,9.54
2019-05-01T03:48:52.465Z,9.46
2019-05-01T03:53:55.899Z,9.18
2019-05-01T03:59:00.146Z,9.44
2019-05-01T04:04:05.369Z,9.49
2019-05-01T04:09:08.845Z,9.39
2019-05-01T04:14:12.870Z,9.36
2019-05-01T04:19:16.831Z,8.97
2019-05-01T04:24:20.243Z,8.89
2019-05-01T04:29:26.646Z,8.71
2019-05-01T04:34:46.801Z,8.93
2019-05-01T04:39:50.974Z,9.10
2019-05-01T04:44:54.461Z,9.11
2019-05-01T04:49:57.954Z,8.93
2019-05-01T04:55:01.634Z,9.06
2019-05-01T05:00:07.476Z,9.15
2019-05-01T05:05:11.556Z,9.45
2019-05-01T05:10:14.993Z,9.06
2019-05-01T05:15:29.110Z,9.01
2019-05-01T05:20:32.694Z,9.12
2019-05-01T05:25:36.174Z,9.51
2019-05-01T05:30:41.941Z,9.78
2019-05-01T05:35:48.374Z,9.64
2019-05-01T05:40:52.713Z,9.64
2019-05-01T05:45:56.342Z,9.58
2019-05-01T05:51:07.979Z,9.70
2019-05-01T05:56:48.889Z,9.48
2019-05-01T06:02:02.127Z,9.70
2019-05-01T06:07:11.945Z,9.79
2019-05-01T06:12:37.222Z,9.75
2019-05-01T06:17:42.502Z,9.95
2019-05-01T06:23:07.514Z,10.07
2019-05-01T06:28:11.667Z,9.77
2019-05-01T06:33:16.226Z,9.81
2019-05-01T06:38:20.513Z,9.92
2019-05-01T06:43:40.496Z,9.97
2019-05-01T06:48:53.469Z,10.16
2019-05-01T06:53:55.852Z,10.34
2019-05-01T06:58:59.638Z,9.99
2019-05-01T07:04:04.087Z,10.24
2019-05-01T07:09:11.834Z,10.51
2019-05-01T07:14:16.462Z,10.29
2019-05-01T07:19:21.185Z,10.10
2019-05-01T07:24:28.048Z,10.16
2019-05-01T07:29:32.986Z,10.01
2019-05-01T07:34:36.617Z,10.29
2019-05-01T07:39:44.926Z,10.18
2019-05-01T07:44:47.619Z,10.48
2019-05-01T07:49:54.805Z,10.70
2019-05-01T07:54:58.699Z,10.66
2019-05-01T08:00:08.147Z,10.66
2019-05-01T08:05:11.604Z,10.78
2019-05-01T08:10:14.723Z,10.30
2019-05-01T08:15:22.614Z,10.53
2019-05-01T08:20:34.037Z,10.78
2019-05-01T08:25:37.526Z,11.02
2019-05-01T08:30:42.598Z,11.32
2019-05-01T08:35:46.037Z,11.49
2019-05-01T08:40:50.778Z,11.58
2019-05-01T08:46:05.218Z,11.69
2019-05-01T08:51:08.824Z,11.76
2019-05-01T08:56:12.326Z,11.84
2019-05-01T09:01:16.375Z,11.81
2019-05-01T09:06:19.864Z,12.10
2019-05-01T09:11:23.289Z,12.03
2019-05-01T09:16:28.263Z,12.13
2019-05-01T09:21:33.188Z,12.23
2019-05-01T09:26:38.708Z,12.60
2019-05-01T09:31:42.285Z,12.85
2019-05-01T09:36:45.688Z,12.72
2019-05-01T09:41:49.122Z,12.94
2019-05-01T09:46:52.548Z,13.10
2019-05-01T09:52:13.863Z,13.48
2019-05-01T09:57:17.347Z,13.16
2019-05-01T10:02:20.779Z,13.68
2019-05-01T10:07:29.053Z,14.01
2019-05-01T10:12:30.209Z,14.26
2019-05-01T10:17:33.654Z,14.43
2019-05-01T10:22:37.605Z,14.09
2019-05-01T10:27:55.782Z,14.57
2019-05-01T10:33:06.536Z,14.70
2019-05-01T10:38:10.804Z,15.14
2019-05-01T10:43:14.238Z,15.81
2019-05-01T10:48:17.683Z,16.11
2019-05-01T10:53:21.205Z,15.82
2019-05-01T10:58:24.725Z,16.58
2019-05-01T11:03:28.347Z,17.79
2019-05-01T11:08:31.849Z,18.75
2019-05-01T11:13:35.431Z,19.29
2019-05-01T11:18:38.985Z,18.43
2019-05-01T11:23:42.389Z,18.49
2019-05-01T11:28:45.825Z,19.27
2019-05-01T11:33:50.912Z,19.75
2019-05-01T11:39:47.191Z,20.27
2019-05-01T11:44:50.597Z,20.64
2019-05-01T11:49:54.030Z,20.69
2019-05-01T11:57:30.036Z,22.44
2019-05-01T12:02:33.471Z,22.44
2019-05-01T12:07:36.920Z,22.36
2019-05-01T12:12:40.408Z,22.73
2019-05-01T12:17:45.486Z,23.01
2019-05-01T12:22:51.409Z,23.23
2019-05-01T12:27:54.182Z,23.39
2019-05-01T12:32:57.706Z,23.60
2019-05-01T12:38:02.878Z,23.51
2019-05-01T12:43:06.354Z,23.71
2019-05-01T12:48:10.447Z,23.25
2019-05-01T12:53:15.437Z,23.14
2019-05-01T12:58:19.235Z,23.73
2019-05-01T13:03:22.741Z,23.90
2019-05-01T13:08:26.588Z,23.78
2019-05-01T13:13:30.053Z,24.28
2019-05-01T13:18:33.483Z,24.32
2019-05-01T13:23:36.895Z,24.90
2019-05-01T13:28:57.976Z,24.78
2019-05-01T13:34:01.657Z,25.03
2019-05-01T13:39:08.124Z,25.10
2019-05-01T13:44:11.536Z,24.31
2019-05-01T13:49:15.032Z,24.05
2019-05-01T13:54:18.605Z,23.66
2019-05-01T13:59:22.078Z,24.07
2019-05-01T14:04:25.778Z,24.37
2019-05-01T14:09:30.911Z,23.60
2019-05-01T14:14:34.462Z,24.19
2019-05-01T14:19:39.608Z,24.77
2019-05-01T14:24:50.610Z,24.41
2019-05-01T14:29:54.367Z,24.21
2019-05-01T14:34:57.865Z,24.44
2019-05-01T14:40:01.290Z,24.84
2019-05-01T14:45:07.757Z,25.06
2019-05-01T14:50:11.635Z,24.90
2019-05-01T14:55:15.147Z,24.03
2019-05-01T15:00:19.781Z,22.90
2019-05-01T15:05:23.234Z,22.99
2019-05-01T15:10:26.674Z,23.39
2019-05-01T15:20:49.754Z,23.57
2019-05-01T15:45:22.457Z,22.84
2019-05-01T15:50:25.799Z,23.68
2019-05-01T15:55:29.851Z,22.51
2019-05-01T16:00:33.228Z,22.13
2019-05-01T16:05:36.812Z,22.63
2019-05-01T16:10:41.981Z,23.05
2019-05-01T16:15:45.432Z,23.06
2019-05-01T16:20:48.860Z,22.14
2019-05-01T16:25:52.373Z,21.92
2019-05-01T16:30:55.803Z,21.85
2019-05-01T16:35:59.225Z,21.87
2019-05-01T16:41:04.298Z,22.07
2019-05-01T16:46:07.855Z,22.12
2019-05-01T16:51:11.258Z,21.82
2019-05-01T16:56:15.080Z,21.54
2019-05-01T17:01:20.215Z,20.98
2019-05-01T17:06:41.713Z,20.98
2019-05-01T17:11:45.221Z,20.94
2019-05-01T17:16:48.636Z,20.60
2019-05-01T17:21:52.053Z,19.95
2019-05-01T17:26:55.502Z,19.95
2019-05-01T17:31:58.990Z,19.75
2019-05-01T17:37:02.413Z,19.68
2019-05-01T17:42:06.099Z,19.16
2019-05-01T17:47:09.495Z,18.90
2019-05-01T17:52:12.951Z,18.78
2019-05-01T17:57:16.402Z,18.23
2019-05-01T18:02:30.248Z,17.89
2019-05-01T18:07:35.005Z,17.63
2019-05-01T18:12:38.527Z,17.68
2019-05-01T18:17:41.943Z,17.46
2019-05-01T18:22:56.001Z,17.27
2019-05-01T18:28:03.906Z,17.02
2019-05-01T18:33:07.787Z,16.95
2019-05-01T18:38:15.722Z,16.58
2019-05-01T18:43:19.417Z,16.47
2019-05-01T18:48:24.395Z,16.29
2019-05-01T18:53:28.144Z,16.14
2019-05-01T18:58:31.571Z,16.05
2019-05-01T19:03:37.296Z,15.97
2019-05-01T19:08:40.597Z,15.78
2019-05-01T19:13:44.231Z,15.28
2019-05-01T19:18:47.843Z,14.95
2019-05-01T19:23:51.260Z,14.70
2019-05-01T19:28:54.682Z,14.31
2019-05-01T19:33:59.193Z,14.10
2019-05-01T19:39:06.773Z,13.96
2019-05-01T19:44:13.795Z,13.87
2019-05-01T19:49:15.418Z,13.76
2019-05-01T19:54:23.072Z,13.51
2019-05-01T19:59:24.656Z,13.39
2019-05-01T20:04:28.097Z,13.38
2019-05-01T20:09:31.631Z,13.31
2019-05-01T20:14:35.070Z,13.16
2019-05-01T20:19:38.565Z,12.91
2019-05-01T20:24:44.284Z,12.79
2019-05-01T20:29:47.323Z,12.63
2019-05-01T20:34:52.794Z,12.56
2019-05-01T20:40:10.136Z,12.49
2019-05-01T20:45:05.616Z,12.56
2019-05-01T20:50:07.669Z,12.60
2019-05-01T20:55:11.262Z,12.57
2019-05-01T21:00:16.951Z,12.56
2019-05-01T21:05:22.944Z,12.55
2019-05-01T21:10:29.980Z,12.51
2019-05-01T21:15:33.178Z,12.42
2019-05-01T21:20:36.640Z,12.56
2019-05-01T21:25:40.185Z,12.50
2019-05-01T21:30:47.354Z,12.68
2019-05-01T21:35:48.905Z,12.64
2019-05-01T21:40:53.868Z,12.54
2019-05-01T21:45:57.407Z,12.36
2019-05-01T21:51:03.369Z,12.27
2019-05-01T21:56:06.538Z,12.25
2019-05-01T22:01:11.530Z,12.31
2019-05-01T22:06:15.522Z,12.27
2019-05-01T22:11:20.037Z,12.17
2019-05-01T22:16:27.707Z,12.12
2019-05-01T22:21:38.707Z,12.12
2019-05-01T22:26:49.470Z,11.93
2019-05-01T22:32:03.209Z,11.73
2019-05-01T22:37:06.702Z,11.73
2019-05-01T22:42:10.744Z,11.65
2019-05-01T22:47:14.984Z,11.34
2019-05-01T22:52:19.596Z,11.30
2019-05-01T22:57:23.016Z,11.43
2019-05-01T23:02:29.603Z,11.37
2019-05-01T23:07:32.993Z,11.30
2019-05-01T23:12:36.472Z,11.30
2019-05-01T23:17:41.544Z,11.16
2019-05-01T23:22:45.156Z,11.03
2019-05-01T23:27:48.520Z,10.99
2019-05-01T23:32:51.993Z,10.93
2019-05-01T23:37:55.473Z,10.86
2019-05-01T23:42:58.921Z,10.71
2019-05-01T23:48:02.364Z,10.67
2019-05-01T23:53:09.109Z,10.47
2019-05-01T23:58:10.972Z,10.57
